createdAt,value
2022-09-13T00:00:49.456Z,87.80
2022-09-13T00:03:51.126Z,86.70
2022-09-13T00:06:52.717Z,87.20
2022-09-13T00:09:54.337Z,87.50
2022-09-13T00:12:55.932Z,89.60
2022-09-13T00:15:58.412Z,89.00
2022-09-13T00:19:00.667Z,87.10
2022-09-13T00:22:02.232Z,87.10
2022-09-13T00:25:05.441Z,87.10
2022-09-13T00:28:07.306Z,86.70
2022-09-13T00:31:09.881Z,87.90
2022-09-13T00:34:11.691Z,87.40
2022-09-13T00:37:13.221Z,88.50
2022-09-13T00:40:14.886Z,87.30
2022-09-13T00:43:22.222Z,87.10
2022-09-13T00:46:48.411Z,86.80
2022-09-13T00:49:53.805Z,87.70
2022-09-13T00:53:04.933Z,87.90
2022-09-13T00:56:14.453Z,85.30
2022-09-13T00:59:24.594Z,88.40
2022-09-13T01:02:28.768Z,86.90
2022-09-13T01:05:38.638Z,88.60
2022-09-13T01:08:43.054Z,88.70
2022-09-13T01:11:55.644Z,88.70
2022-09-13T01:14:58.861Z,88.70
2022-09-13T01:18:00.558Z,87.00
2022-09-13T01:21:14.200Z,89.00
2022-09-13T01:24:24.800Z,87.30
2022-09-13T01:27:42.869Z,86.20
2022-09-13T01:31:10.956Z,86.30
2022-09-13T01:34:30.250Z,89.10
2022-09-13T01:37:43.666Z,86.00
2022-09-13T01:41:04.981Z,85.90
2022-09-13T01:44:52.288Z,89.50
2022-09-13T01:47:59.348Z,86.40
2022-09-13T01:51:04.511Z,85.60
2022-09-13T01:54:37.200Z,88.70
2022-09-13T01:57:49.467Z,85.60
2022-09-13T02:01:03.489Z,88.40
2022-09-13T02:04:18.170Z,88.30
2022-09-13T02:07:35.380Z,88.60
2022-09-13T02:10:46.156Z,88.00
2022-09-13T02:13:56.212Z,87.80
2022-09-13T02:17:15.198Z,88.70
2022-09-13T02:20:23.099Z,85.70
2022-09-13T02:23:32.399Z,88.60
2022-09-13T02:26:37.889Z,88.70
2022-09-13T02:29:42.579Z,89.10
2022-09-13T02:32:51.610Z,88.20
2022-09-13T02:36:00.813Z,86.10
2022-09-13T02:39:06.374Z,87.30
2022-09-13T02:42:23.130Z,87.70
2022-09-13T02:45:31.977Z,86.20
2022-09-13T02:49:01.972Z,87.90
2022-09-13T02:52:23.535Z,86.30
2022-09-13T02:55:48.269Z,86.00
2022-09-13T02:59:24.808Z,86.00
2022-09-13T03:02:32.565Z,88.80
2022-09-13T03:05:34.284Z,87.50
2022-09-13T03:08:37.347Z,89.20
2022-09-13T03:11:57.413Z,89.20
2022-09-13T03:15:04.858Z,87.60
2022-09-13T03:18:25.298Z,86.20
2022-09-13T03:21:52.412Z,89.70
2022-09-13T03:25:22.926Z,88.40
2022-09-13T03:28:48.796Z,86.50
2022-09-13T03:32:10.645Z,86.20
2022-09-13T03:35:21.668Z,87.00
2022-09-13T03:43:41.459Z,88.40
2022-09-13T03:46:49.899Z,88.10
2022-09-13T03:49:52.758Z,90.20
2022-09-13T03:53:03.137Z,90.80
2022-09-13T03:56:17.634Z,89.20
2022-09-13T03:59:20.412Z,90.50
2022-09-13T04:02:24.451Z,90.80
2022-09-13T04:05:26.356Z,90.50
2022-09-13T04:08:27.975Z,90.90
2022-09-13T04:11:30.171Z,90.90
2022-09-13T04:14:31.982Z,91.10
2022-09-13T04:17:33.805Z,91.40
2022-09-13T04:20:36.017Z,91.30
2022-09-13T04:23:38.283Z,91.00
2022-09-13T04:26:39.861Z,91.10
2022-09-13T04:29:41.645Z,91.00
2022-09-13T04:32:44.451Z,90.70
2022-09-13T04:35:46.446Z,91.30
2022-09-13T04:38:48.229Z,91.80
2022-09-13T04:41:51.862Z,92.10
2022-09-13T04:44:53.471Z,91.90
2022-09-13T04:47:56.540Z,91.50
2022-09-13T04:51:04.525Z,91.20
2022-09-13T04:54:06.378Z,92.20
2022-09-13T04:57:08.463Z,92.30
2022-09-13T05:00:10.555Z,92.30
2022-09-13T05:03:12.133Z,91.60
2022-09-13T05:06:17.925Z,92.30
2022-09-13T05:09:19.624Z,91.90
2022-09-13T05:12:21.171Z,92.70
2022-09-13T05:15:28.551Z,91.40
2022-09-13T05:18:32.733Z,92.60
2022-09-13T05:21:34.387Z,91.40
2022-09-13T05:24:35.961Z,91.60
2022-09-13T05:27:40.158Z,91.80
2022-09-13T05:30:42.406Z,92.30
2022-09-13T05:33:59.812Z,92.20
2022-09-13T05:37:01.480Z,90.50
2022-09-13T05:40:12.342Z,92.40
2022-09-13T05:43:14.581Z,91.60
2022-09-13T05:46:21.965Z,92.50
2022-09-13T05:49:25.265Z,91.10
2022-09-13T05:52:29.678Z,92.00
2022-09-13T05:55:31.878Z,92.20
2022-09-13T05:58:35.376Z,92.10
2022-09-13T06:01:37.144Z,91.60
2022-09-13T06:04:38.926Z,91.50
2022-09-13T06:07:42.181Z,92.10
2022-09-13T06:10:43.815Z,91.80
2022-09-13T06:13:45.455Z,92.30
2022-09-13T06:16:47.158Z,92.40
2022-09-13T06:19:48.846Z,91.90
2022-09-13T06:22:50.437Z,91.80
2022-09-13T06:26:02.138Z,91.90
2022-09-13T06:29:03.760Z,91.70
2022-09-13T06:32:05.829Z,91.60
2022-09-13T06:35:08.294Z,91.30
2022-09-13T06:38:09.880Z,90.80
2022-09-13T06:41:20.568Z,91.90
2022-09-13T06:44:22.533Z,91.20
2022-09-13T06:47:24.282Z,91.00
2022-09-13T06:50:25.955Z,91.90
2022-09-13T06:53:28.922Z,91.20
2022-09-13T06:56:32.761Z,91.50
2022-09-13T06:59:34.958Z,91.40
2022-09-13T07:02:36.600Z,90.80
2022-09-13T07:05:38.130Z,90.90
2022-09-13T07:08:46.571Z,91.10
2022-09-13T07:11:50.349Z,89.70
2022-09-13T07:14:51.887Z,91.40
2022-09-13T07:17:53.470Z,90.80
2022-09-13T07:21:01.182Z,90.80
2022-09-13T07:24:04.113Z,90.70
2022-09-13T07:27:05.738Z,90.60
2022-09-13T07:30:07.922Z,91.00
2022-09-13T07:33:09.530Z,90.50
2022-09-13T07:36:12.239Z,91.30
2022-09-13T07:39:22.070Z,90.80
2022-09-13T07:42:24.187Z,91.00
2022-09-13T07:45:25.790Z,91.10
2022-09-13T07:48:33.239Z,90.60
2022-09-13T07:51:37.435Z,90.10
2022-09-13T07:54:39.074Z,90.20
2022-09-13T07:57:40.752Z,90.70
2022-09-13T08:00:42.461Z,90.50
2022-09-13T08:03:44.476Z,90.40
2022-09-13T08:06:46.977Z,90.20
2022-09-13T08:09:48.785Z,90.10
2022-09-13T08:12:50.441Z,90.50
2022-09-13T08:15:52.179Z,90.70
2022-09-13T08:18:55.678Z,89.10
2022-09-13T08:21:57.265Z,90.20
2022-09-13T08:24:58.862Z,90.60
2022-09-13T08:28:01.748Z,90.40
2022-09-13T08:31:12.185Z,89.80
2022-09-13T08:34:15.110Z,89.70
2022-09-13T08:37:16.781Z,89.20
2022-09-13T08:40:18.766Z,88.50
2022-09-13T08:43:49.230Z,88.70
2022-09-13T08:46:51.818Z,86.50
2022-09-13T08:50:17.247Z,90.00
2022-09-13T08:53:26.082Z,88.70
2022-09-13T08:56:48.425Z,88.50
2022-09-13T09:00:28.060Z,89.40
2022-09-13T09:03:43.035Z,86.60
2022-09-13T09:06:45.022Z,89.70
2022-09-13T09:09:53.771Z,88.00
2022-09-13T09:12:59.382Z,89.10
2022-09-13T09:16:35.238Z,89.30
2022-09-13T09:19:41.928Z,86.80
2022-09-13T09:22:45.534Z,88.20
2022-09-13T09:25:47.598Z,87.80
2022-09-13T09:29:16.484Z,87.90
2022-09-13T09:32:32.787Z,85.90
2022-09-13T09:35:47.801Z,85.70
2022-09-13T09:38:49.473Z,89.20
2022-09-13T09:41:51.338Z,88.60
2022-09-13T09:45:04.653Z,89.50
2022-09-13T09:48:14.842Z,87.90
2022-09-13T09:51:20.133Z,87.20
2022-09-13T09:54:23.150Z,88.10
2022-09-13T09:58:08.283Z,88.50
2022-09-13T10:01:18.742Z,85.20
2022-09-13T10:04:22.518Z,87.40
2022-09-13T10:07:35.742Z,87.00
2022-09-13T10:10:42.727Z,87.30
2022-09-13T10:14:02.529Z,86.60
2022-09-13T10:17:26.663Z,86.20
2022-09-13T10:20:28.345Z,83.60
2022-09-13T10:23:32.405Z,86.70
2022-09-13T10:26:34.406Z,85.50
2022-09-13T10:29:36.350Z,86.30
2022-09-13T10:32:37.998Z,86.10
2022-09-13T10:35:39.664Z,85.70
2022-09-13T10:38:47.883Z,86.60
2022-09-13T10:41:57.883Z,85.90
2022-09-13T10:45:01.380Z,82.60
2022-09-13T10:48:13.953Z,85.90
2022-09-13T10:51:21.935Z,86.30
2022-09-13T10:54:24.133Z,86.20
2022-09-13T10:57:35.361Z,85.80
2022-09-13T11:00:42.789Z,85.50
2022-09-13T11:03:56.943Z,81.70
2022-09-13T11:07:16.634Z,81.30
2022-09-13T11:10:29.146Z,83.70
2022-09-13T11:13:49.568Z,80.20
2022-09-13T11:17:03.918Z,82.60
2022-09-13T11:20:32.113Z,83.10
2022-09-13T11:23:59.742Z,80.50
2022-09-13T11:27:14.727Z,79.90
2022-09-13T11:30:29.808Z,82.20
2022-09-13T11:33:37.703Z,83.50
2022-09-13T11:36:50.700Z,79.20
2022-09-13T11:39:59.693Z,78.70
2022-09-13T11:43:41.306Z,82.60
2022-09-13T11:47:13.296Z,79.50
2022-09-13T11:50:55.832Z,79.10
2022-09-13T11:54:16.313Z,79.10
2022-09-13T11:57:25.283Z,78.40
2022-09-13T12:00:33.088Z,80.40
2022-09-13T12:03:43.496Z,80.60
2022-09-13T12:06:50.334Z,81.90
2022-09-13T12:10:21.384Z,79.70
2022-09-13T12:13:27.420Z,78.20
2022-09-13T12:16:36.773Z,80.60
2022-09-13T12:19:51.623Z,78.00
2022-09-13T12:22:55.772Z,79.80
2022-09-13T12:26:17.504Z,79.60
2022-09-13T12:29:45.476Z,77.00
2022-09-13T12:32:49.037Z,76.20
2022-09-13T12:35:56.261Z,78.50
2022-09-13T12:39:35.224Z,78.20
2022-09-13T12:42:46.371Z,76.30
2022-09-13T12:46:09.637Z,79.10
2022-09-13T12:49:31.022Z,81.80
2022-09-13T12:53:29.044Z,78.00
2022-09-13T12:56:37.235Z,78.10
2022-09-13T13:00:02.510Z,78.10
2022-09-13T13:03:12.168Z,81.80
2022-09-13T13:06:48.885Z,77.20
2022-09-13T13:09:56.310Z,76.90
2022-09-13T13:13:11.131Z,80.90
2022-09-13T13:16:27.822Z,82.20
2022-09-13T13:19:32.276Z,76.80
2022-09-13T13:22:43.306Z,79.40
2022-09-13T13:26:08.044Z,83.70
2022-09-13T13:29:29.966Z,76.50
2022-09-13T13:32:31.720Z,76.80
2022-09-13T13:35:33.602Z,81.90
2022-09-13T13:38:41.830Z,83.20
2022-09-13T13:41:49.419Z,80.40
2022-09-13T13:44:56.924Z,80.60
2022-09-13T13:48:35.751Z,81.10
2022-09-13T13:51:37.706Z,77.40
2022-09-13T13:54:42.380Z,81.20
2022-09-13T13:57:59.581Z,80.90
2022-09-13T14:01:02.790Z,76.20
2022-09-13T14:04:33.524Z,81.30
2022-09-13T14:07:52.898Z,78.10
2022-09-13T14:11:42.223Z,80.90
2022-09-13T14:15:13.460Z,77.30
2022-09-13T14:18:15.112Z,77.10
2022-09-13T14:21:25.037Z,80.90
2022-09-13T14:24:31.344Z,76.20
2022-09-13T14:27:43.683Z,75.30
2022-09-13T14:30:49.563Z,80.80
2022-09-13T14:33:52.823Z,82.50
2022-09-13T14:36:57.804Z,80.80
2022-09-13T14:40:18.824Z,80.00
2022-09-13T14:43:24.190Z,76.40
2022-09-13T14:46:37.526Z,80.10
2022-09-13T14:49:49.011Z,81.00
2022-09-13T14:52:58.545Z,80.90
2022-09-13T14:56:22.394Z,76.30
2022-09-13T14:59:29.912Z,80.70
2022-09-13T15:02:37.826Z,77.20
2022-09-13T15:05:40.595Z,79.30
2022-09-13T15:08:48.079Z,80.80
2022-09-13T15:11:53.237Z,81.50
2022-09-13T15:15:26.174Z,81.70
2022-09-13T15:18:36.655Z,83.50
2022-09-13T15:21:39.191Z,82.60
2022-09-13T15:24:54.627Z,84.10
2022-09-13T15:27:57.553Z,84.80
2022-09-13T15:31:00.966Z,86.20
2022-09-13T15:34:17.990Z,84.20
2022-09-13T15:37:30.178Z,87.00
2022-09-13T15:40:43.313Z,85.00
2022-09-13T15:43:47.867Z,85.00
2022-09-13T15:47:02.189Z,83.70
2022-09-13T15:50:04.356Z,88.00
2022-09-13T15:53:12.079Z,82.80
2022-09-13T15:56:19.976Z,83.20
2022-09-13T15:59:22.417Z,81.70
2022-09-13T16:02:30.783Z,84.60
2022-09-13T16:05:33.250Z,85.50
2022-09-13T16:08:36.435Z,87.50
2022-09-13T16:11:38.332Z,84.00
2022-09-13T16:14:40.681Z,85.60
2022-09-13T16:17:42.612Z,87.80
2022-09-13T16:20:45.410Z,85.60
2022-09-13T16:23:47.425Z,86.20
2022-09-13T16:26:49.250Z,89.70
2022-09-13T16:29:51.010Z,87.80
2022-09-13T16:32:52.736Z,86.50
2022-09-13T16:35:54.461Z,87.40
2022-09-13T16:39:00.831Z,87.50
2022-09-13T16:42:02.615Z,87.50
2022-09-13T16:45:05.035Z,88.00
2022-09-13T16:48:08.327Z,86.40
2022-09-13T16:51:13.448Z,88.10
2022-09-13T16:54:15.853Z,87.10
2022-09-13T16:57:22.666Z,90.30
2022-09-13T17:00:29.659Z,90.30
2022-09-13T17:03:34.138Z,90.40
2022-09-13T17:06:36.159Z,89.20
2022-09-13T17:09:40.632Z,90.60
2022-09-13T17:12:42.999Z,90.90
2022-09-13T17:15:45.016Z,90.60
2022-09-13T17:18:46.894Z,91.20
2022-09-13T17:21:52.348Z,91.50
2022-09-13T17:24:58.761Z,89.90
2022-09-13T17:28:00.711Z,86.30
2022-09-13T17:31:03.440Z,91.60
2022-09-13T17:34:07.891Z,90.00
2022-09-13T17:37:10.482Z,89.30
2022-09-13T17:40:12.661Z,90.40
2022-09-13T17:43:20.773Z,90.50
2022-09-13T17:46:25.073Z,91.40
2022-09-13T17:49:26.963Z,90.90
2022-09-13T17:52:34.729Z,91.90
2022-09-13T17:55:37.060Z,91.00
2022-09-13T17:58:38.941Z,90.90
2022-09-13T18:01:48.294Z,91.50
2022-09-13T18:04:53.338Z,91.10
2022-09-13T18:07:55.141Z,90.00
2022-09-13T18:11:13.108Z,91.90
2022-09-13T18:14:19.781Z,90.70
2022-09-13T18:17:21.527Z,90.70
2022-09-13T18:20:23.455Z,91.80
2022-09-13T18:23:31.791Z,91.80
2022-09-13T18:26:37.351Z,90.60
2022-09-13T18:29:51.162Z,91.00
2022-09-13T18:33:03.863Z,91.20
2022-09-13T18:42:15.908Z,91.30
2022-09-13T18:44:37.714Z,92.10
2022-09-13T18:51:01.502Z,91.40
2022-09-13T18:54:06.362Z,91.00
2022-09-13T18:57:08.916Z,90.70
2022-09-13T19:00:11.296Z,91.60
2022-09-13T19:03:13.680Z,91.50
2022-09-13T19:06:22.088Z,91.60
2022-09-13T19:09:24.766Z,89.20
2022-09-13T19:12:26.844Z,91.60
2022-09-13T19:15:29.033Z,92.20
2022-09-13T19:18:31.335Z,92.80
2022-09-13T19:21:34.133Z,91.20
2022-09-13T19:27:55.827Z,91.70
2022-09-13T19:31:04.377Z,91.90
2022-09-13T19:34:07.736Z,90.80
2022-09-13T19:37:10.720Z,91.10
2022-09-13T19:40:20.148Z,91.70
2022-09-13T19:43:25.977Z,92.90
2022-09-13T19:50:05.159Z,88.60
2022-09-13T19:56:38.000Z,92.10
2022-09-13T19:59:43.316Z,91.20
2022-09-13T20:06:11.598Z,91.20
2022-09-13T20:09:17.465Z,90.10
2022-09-13T20:12:25.840Z,91.10
2022-09-13T20:15:32.420Z,91.30
2022-09-13T20:18:38.509Z,90.80
2022-09-13T20:21:45.106Z,90.80
2022-09-13T20:24:46.951Z,90.60
2022-09-13T20:27:49.021Z,91.30
2022-09-13T20:30:56.134Z,91.60
2022-09-13T20:34:01.006Z,90.60
2022-09-13T20:40:22.993Z,91.90
2022-09-13T20:43:28.775Z,91.90
2022-09-13T20:49:47.740Z,90.40
2022-09-13T20:52:50.686Z,90.10
2022-09-13T20:59:10.712Z,91.20
2022-09-13T21:02:26.436Z,90.40
2022-09-13T21:05:28.511Z,89.60
2022-09-13T21:08:49.797Z,90.20
2022-09-13T21:11:51.862Z,87.90
2022-09-13T21:18:24.065Z,86.90
2022-09-13T21:21:32.105Z,91.00
2022-09-13T21:31:14.501Z,90.30
2022-09-13T21:34:20.827Z,87.20
2022-09-13T21:37:26.752Z,88.20
2022-09-13T21:40:28.848Z,88.40
2022-09-13T21:43:32.771Z,88.60
2022-09-13T21:46:37.696Z,87.30
2022-09-13T21:49:40.417Z,86.70
2022-09-13T21:56:01.905Z,90.00
2022-09-13T21:59:06.845Z,86.80
2022-09-13T22:05:25.718Z,87.90
2022-09-13T22:08:33.063Z,91.00
2022-09-13T22:11:39.950Z,88.80
2022-09-13T22:14:41.660Z,87.90
2022-09-13T22:17:44.554Z,88.90
2022-09-13T22:20:52.563Z,89.50
2022-09-13T22:23:56.919Z,90.40
2022-09-13T22:26:59.604Z,88.90
2022-09-13T22:30:01.977Z,90.50
2022-09-13T22:33:03.941Z,91.00
2022-09-13T22:39:32.499Z,89.90
2022-09-13T22:46:09.169Z,90.00
2022-09-13T22:49:17.581Z,88.00
2022-09-13T22:55:37.278Z,90.90
2022-09-13T22:58:42.759Z,91.50
2022-09-13T23:01:47.361Z,91.00
2022-09-13T23:04:59.119Z,92.00
2022-09-13T23:08:04.167Z,92.50
2022-09-13T23:11:19.460Z,91.40
2022-09-13T23:14:21.614Z,91.90
2022-09-13T23:17:23.449Z,92.50
2022-09-13T23:20:26.373Z,92.30
2022-09-13T23:23:33.168Z,91.70
2022-09-13T23:26:35.498Z,90.80
2022-09-13T23:29:39.385Z,92.50
2022-09-13T23:32:50.997Z,91.60
2022-09-13T23:35:59.148Z,91.30
2022-09-13T23:39:05.077Z,92.60
2022-09-13T23:42:14.283Z,91.90
2022-09-13T23:48:32.090Z,93.20
